Relevés horaires Schaffen (Belgique)


Relevés horaires à Schaffen - Vendredi 04 Août 2017
Heure UTC1 Température [°C] Vent [km/h] Hum. [%] Pres.4 [hPa] Visi. [Km] Nébu. [octa] Préc.5 [mm] Cond.
2m. Res. Ros. Dir.2 Vit. Moy. Raf.3
23:00 17.7 17.7 11.6 NNO 1.9 -- 3.7 67 1014.3(-0.5/3h) 20 -- -- --
22:00 18.2 18.2 11.1 NNO 1.9 -- 3.7 63 1014.7(0.3/3h) 20 -- -- --
21:00 18.8 18.8 11.1 NNO 1.9 -- 13.0 61 1015.1(0.9/3h) 20 -- -- --
20:00 19.3 19.3 10.5 OSO 3.7 -- 9.3 57 1014.8(1.0/3h) 20 -- -- --
19:00 20.7 20.7 10.7 O 5.6 -- 13.0 53 1014.2(0.5/3h) 20 -- -- --
18:00 21.7 21.7 11.0 OSO 3.7 -- 20.4 51 1014(0.2/3h) 20 -- 0.1/12h
--
17:00 22.3 22.3 9.7 O 7.4 -- 16.7 45 1013.7(0.0/3h) 20 -- -- --
16:00 22.8 22.8 10.2 O 9.3 -- 18.5 45 1013.7(0.0/3h) 20 -- -- --
15:00 22.6 22.6 12.8 OSO 11.1 -- 20.4 54 1013.7(0.1/3h) 20 -- -- --
14:00 21.4 21.4 13.1 OSO 9.3 -- 20.4 59 1013.7(0.2/3h) 20 -- -- --
13:00 21.1 21.1 13.1 OSO 11.1 -- 18.5 60 1013.7(0.3/3h) 20 -- -- --
12:00 20.1 20.1 13.4 OSO 9.3 -- 20.4 65 1013.7(0.8/3h) 20 -- 0.1/6h
NA
11:00 20.1 20.1 14.7 SO 7.4 -- 16.7 71 1013.5(1.1/3h) 20 -- -- NA
10:00 16.8 16.8 15.2 ONO 7.4 -- 13.0 90 1013.5(1.0/3h) 19 -- -- --
09:00 18.5 18.5 13.9 SO 5.6 -- 16.7 75 1012.8(0.6/3h) 20 -- -- --
08:00 18.7 18.7 13.1 OSO 11.1 -- 16.7 70 1012.3(0.5/3h) 20 -- -- --
07:00 18.0 18.0 12.9 SO 7.4 -- 14.8 72 1012.3(0.2/3h) 20 -- -- --
06:00 17.3 17.3 13.5 SSO 5.6 -- 11.1 78 1012.2(0.2/3h) 20 -- -- --
05:00 16.6 16.6 13.0 SSO 5.6 -- 11.1 79 1012(0.0/3h) 20 -- -- --
04:00 16.5 16.5 12.5 SSO 3.7 -- 7.4 77 1012.2(0.0/3h) 20 -- -- --
03:00 16.0 16.0 12.6 SSO 3.7 -- 9.3 80 1012(-0.4/3h) 20 -- -- --
02:00 16.3 16.3 12.5 S 3.7 -- 7.4 78 1012.1(-0.4/3h) 20 -- -- --
01:00 17.2 17.2 12.1 SO 3.7 -- 9.3 72 1012.2(-0.2/3h) 20 -- -- --
00:00 17.2 17.2 11.9 SO 3.7 -- 16.7 71 1012.2(0.0/3h) 20 -- -- --

1 Coordinated Universal Time. Actuellement il est 10:00 locale et 09:00 UTC.

2 Le vent souffle depuis la direction indiquée vers la direction oposée.

3 Les rafales max. sont disponible 40 min après l'heure du relevé.

4 Pour les stations d'altitude (plus de 600m) le géopotentiel du niveau le plus proche de la pression obligatoire est indiqué.

5 Les stations disposant d'un diffuseur peuvent indiquer "trace". Cela signifie que des précipitations ont touchés le sol mais que la quantité est inférieure à 0.1 mm.

Récapitulatif de la journée
Température [°C] Vent [km/h] Ensoleillement4 [h] Precipitations totale5 [mm] Pression [Hpa]
Min1 Max.2 Moy.3 Max. Min Max.
16.0 23.1 0 20.4 0 h 0 min 0 1012.0 1015.1

1 Température minimale relevée entre 18:00 UTC la veille et 18:00 UTC le jour donné.

2 Température maximale relevée entre 06:00 UTC le jour donné et 06:00 UTC le lendemain.

3 Vent moyen de la journée basé sur les relevés horaires.

4 Ensoleillement en heures relevé entre 06:00 UTC la veille et 06:00 UTC le jour donné.

5 Précipitations totales tombées entre 06:00 UTC la jour donné et 06:00 UTC le lendemain.

Graphiques horaires